createdAt,value
2022-11-14T00:00:35.587Z,22.77
2022-11-14T00:04:37.511Z,20.67
2022-11-14T00:08:39.356Z,22.63
2022-11-14T00:12:41.317Z,23.40
2022-11-14T00:16:43.193Z,23.37
2022-11-14T00:20:48.983Z,22.33
2022-11-14T00:24:50.920Z,21.80
2022-11-14T00:28:54.361Z,24.87
2022-11-14T00:32:56.197Z,22.33
2022-11-14T00:36:58.116Z,20.83
2022-11-14T00:41:00.048Z,20.10
2022-11-14T00:45:01.923Z,23.93
2022-11-14T00:49:04.044Z,19.40
2022-11-14T00:53:06.638Z,22.23
2022-11-14T00:57:08.597Z,17.90
2022-11-14T01:01:10.694Z,22.67
2022-11-14T01:05:12.616Z,21.47
2022-11-14T01:09:14.656Z,18.60
2022-11-14T01:13:17.691Z,20.47
2022-11-14T01:17:19.652Z,20.23
2022-11-14T01:21:21.583Z,20.23
2022-11-14T01:25:23.645Z,19.67
2022-11-14T01:29:25.502Z,21.63
2022-11-14T01:33:27.368Z,21.07
2022-11-14T01:37:29.353Z,18.10
2022-11-14T01:41:31.293Z,18.80
2022-11-14T01:45:55.450Z,19.43
2022-11-14T01:50:02.287Z,18.60
2022-11-14T01:54:16.576Z,20.00
2022-11-14T01:58:23.716Z,20.43
2022-11-14T02:02:28.235Z,18.93
2022-11-14T02:06:31.077Z,20.53
2022-11-14T02:10:33.153Z,18.90
2022-11-14T02:14:35.338Z,20.07
2022-11-14T02:18:37.404Z,17.73
2022-11-14T02:22:40.732Z,19.37
2022-11-14T02:26:42.787Z,18.90
2022-11-14T02:30:44.767Z,17.17
2022-11-14T02:34:46.697Z,17.37
2022-11-14T02:38:48.762Z,18.83
2022-11-14T02:42:50.672Z,20.60
2022-11-14T02:46:52.546Z,17.17
2022-11-14T02:50:54.401Z,16.00
2022-11-14T02:54:56.283Z,19.33
2022-11-14T02:58:58.385Z,18.17
2022-11-14T03:03:06.912Z,19.27
2022-11-14T03:07:15.011Z,18.97
2022-11-14T03:11:25.916Z,17.83
2022-11-14T03:15:48.394Z,20.97
2022-11-14T03:19:56.928Z,18.37
2022-11-14T03:23:58.874Z,19.27
2022-11-14T03:28:00.719Z,17.90
2022-11-14T03:32:02.680Z,18.83
2022-11-14T03:36:05.074Z,19.23
2022-11-14T03:40:08.165Z,17.77
2022-11-14T03:44:10.365Z,18.63
2022-11-14T03:48:15.206Z,16.33
2022-11-14T03:52:17.071Z,16.93
2022-11-14T03:56:22.304Z,19.13
2022-11-14T04:00:24.198Z,17.10
2022-11-14T04:04:26.056Z,17.63
2022-11-14T04:08:28.467Z,19.00
2022-11-14T04:12:30.548Z,18.00
2022-11-14T04:16:32.785Z,17.80
2022-11-14T04:20:34.598Z,20.37
2022-11-14T04:24:36.594Z,17.87
2022-11-14T04:28:38.506Z,20.00
2022-11-14T04:32:40.322Z,18.10
2022-11-14T04:36:42.249Z,17.50
2022-11-14T04:40:52.848Z,18.30
2022-11-14T04:44:54.907Z,18.23
2022-11-14T04:48:56.829Z,16.90
2022-11-14T04:52:58.902Z,19.80
2022-11-14T04:57:00.693Z,20.67
2022-11-14T05:01:12.705Z,19.23
2022-11-14T05:05:14.776Z,19.23
2022-11-14T05:09:16.801Z,19.80
2022-11-14T05:13:24.663Z,19.07
2022-11-14T05:17:27.491Z,21.20
2022-11-14T05:21:29.448Z,18.67
2022-11-14T05:25:31.562Z,17.83
2022-11-14T05:29:37.182Z,18.47
2022-11-14T05:33:42.041Z,19.87
2022-11-14T05:38:23.143Z,21.33
2022-11-14T05:46:54.463Z,18.67
2022-11-14T05:50:58.061Z,19.23
2022-11-14T05:55:05.243Z,19.20
2022-11-14T05:59:07.344Z,18.97
2022-11-14T06:03:12.083Z,20.20
2022-11-14T06:07:23.113Z,22.73
2022-11-14T06:11:25.041Z,19.20
2022-11-14T06:15:30.160Z,21.77
2022-11-14T06:19:34.550Z,19.20
2022-11-14T06:23:39.647Z,18.13
2022-11-14T06:27:53.478Z,21.30
2022-11-14T06:31:58.516Z,22.50
2022-11-14T06:36:56.191Z,23.80
2022-11-14T07:50:50.417Z,20.83
2022-11-14T08:11:34.855Z,18.70
2022-11-14T08:15:57.089Z,18.30
2022-11-14T08:20:10.857Z,19.80
2022-11-14T08:24:16.133Z,18.33
2022-11-14T08:28:40.211Z,18.70
2022-11-14T08:32:52.436Z,17.80
2022-11-14T08:36:57.084Z,18.00
2022-11-14T08:41:04.614Z,19.30
2022-11-14T08:45:39.673Z,18.20
2022-11-14T08:49:41.611Z,18.83
2022-11-14T08:53:58.413Z,19.70
2022-11-14T08:58:18.456Z,19.83
2022-11-14T09:02:35.605Z,16.60
2022-11-14T09:06:46.378Z,20.93
2022-11-14T09:11:02.728Z,19.50
2022-11-14T09:15:11.478Z,18.47
2022-11-14T09:19:16.948Z,17.87
2022-11-14T09:23:23.184Z,18.17
2022-11-14T09:27:44.774Z,19.67
2022-11-14T09:31:47.898Z,17.50
2022-11-14T10:08:24.072Z,17.53
2022-11-14T10:24:35.832Z,19.00
2022-11-14T10:29:40.338Z,17.70
2022-11-14T10:34:11.082Z,17.87
2022-11-14T10:38:39.274Z,17.23
2022-11-14T10:42:45.001Z,18.00
2022-11-14T12:48:10.493Z,18.87
2022-11-14T12:52:48.788Z,17.27
2022-11-14T12:56:58.010Z,17.27
2022-11-14T13:01:14.755Z,18.13
2022-11-14T13:05:23.684Z,17.67
2022-11-14T13:10:38.345Z,17.50
2022-11-14T13:21:03.886Z,19.00
2022-11-14T13:25:11.721Z,18.33
2022-11-14T13:29:52.666Z,16.57
2022-11-14T13:40:38.682Z,17.80
2022-11-14T13:45:12.957Z,17.70
2022-11-14T13:49:27.246Z,18.73
2022-11-14T13:53:32.786Z,16.77
2022-11-14T13:58:23.826Z,17.00
2022-11-14T14:03:08.730Z,15.97
2022-11-14T14:08:06.842Z,17.30
2022-11-14T14:12:54.265Z,15.63
2022-11-14T14:17:12.515Z,15.80
2022-11-14T14:21:23.761Z,15.23
2022-11-14T14:25:31.576Z,18.40
2022-11-14T14:34:59.982Z,16.93
2022-11-14T14:55:53.978Z,19.63
2022-11-14T15:00:07.201Z,24.00
2022-11-14T15:04:31.434Z,21.00
2022-11-14T15:08:41.668Z,20.00
2022-11-14T15:13:35.176Z,20.83
2022-11-14T15:23:44.157Z,20.87
2022-11-14T15:33:58.052Z,19.20
2022-11-14T15:44:13.520Z,22.67
2022-11-14T15:58:49.629Z,21.67
2022-11-14T16:03:24.229Z,26.57
2022-11-14T16:08:14.936Z,25.60
2022-11-14T16:12:30.105Z,27.17
2022-11-14T16:57:14.534Z,30.10
2022-11-14T17:45:00.223Z,31.40
2022-11-14T17:49:08.963Z,33.67
2022-11-14T17:53:16.534Z,32.87
2022-11-14T17:57:31.241Z,31.33
2022-11-14T18:25:22.059Z,33.20
2022-11-14T18:53:13.674Z,34.77
2022-11-14T18:57:39.040Z,35.73
2022-11-14T19:02:28.007Z,37.33
2022-11-14T20:10:18.425Z,41.17
2022-11-14T21:07:32.011Z,40.97
2022-11-14T21:11:39.226Z,36.83
2022-11-14T21:15:50.539Z,41.07
2022-11-14T21:20:11.304Z,39.13
2022-11-14T21:30:11.174Z,40.00
2022-11-14T21:34:20.858Z,41.90
2022-11-14T21:38:25.760Z,41.50
2022-11-14T21:42:27.903Z,42.23
2022-11-14T21:47:29.517Z,39.17
2022-11-14T21:52:12.587Z,39.80
2022-11-14T21:56:16.767Z,41.37
2022-11-14T22:00:18.902Z,40.43
2022-11-14T22:04:20.937Z,38.07
2022-11-14T22:08:22.847Z,42.10
2022-11-14T22:12:24.802Z,40.37
2022-11-14T22:16:26.857Z,41.53
2022-11-14T22:20:29.935Z,38.47
2022-11-14T22:24:31.756Z,39.20
2022-11-14T22:28:33.675Z,41.80
2022-11-14T22:32:35.565Z,41.40
2022-11-14T22:36:37.494Z,42.27
2022-11-14T22:40:39.585Z,41.20
2022-11-14T22:44:43.814Z,41.90
2022-11-14T22:48:46.040Z,40.80
2022-11-14T22:52:47.946Z,40.03
2022-11-14T22:56:49.821Z,35.47
2022-11-14T23:00:51.891Z,41.47
2022-11-14T23:04:53.758Z,39.97
2022-11-14T23:08:55.914Z,42.13
2022-11-14T23:12:57.937Z,39.30
2022-11-14T23:16:59.889Z,39.47
2022-11-14T23:21:13.809Z,40.43
2022-11-14T23:25:15.818Z,38.97
2022-11-14T23:29:17.703Z,37.03
2022-11-14T23:33:22.256Z,43.70
2022-11-14T23:37:24.206Z,36.53
2022-11-14T23:41:26.156Z,38.63
2022-11-14T23:45:28.227Z,38.37
2022-11-14T23:49:30.400Z,41.47
2022-11-14T23:53:32.660Z,39.30
2022-11-14T23:57:34.781Z,40.80
